Time;durP1;ratioP1;P1;durP2;ratioP2;P2;SDS_P1;SDS_P2;PMS_P1;PMS_P2;Temp;Humidity;BMP_temperature;BMP_pressure;BME280_temperature;BME280_humidity;BME280_pressure;Samples;Min_cycle;Max_cycle;Signal;HPM_P1;HPM_P2
2022/09/18 00:01:30;;;;;;;;;;;;;;;12.77;82.59;101688.66;4970232;28;19988;-82
2022/09/18 00:03:56;;;;;;;;;;;;;;;12.77;82.13;101679.00;4983531;28;20247;-82
2022/09/18 00:06:23;;;;;;;;;;;;;;;12.78;82.20;101685.97;4998749;28;19928;-82
2022/09/18 00:08:51;;;;;;;;;;;;;;;12.80;82.27;101692.03;5000112;28;20125;-82
2022/09/18 00:11:17;;;;;;;;;;;;;;;12.81;82.18;101695.53;4999939;28;20218;-82
2022/09/18 00:13:42;;;;;;;;;;;;;;;12.82;81.98;101691.97;4964284;28;19916;-82
2022/09/18 00:16:10;;;;;;;;;;;;;;;12.80;81.76;101686.75;5002002;28;19921;-82
2022/09/18 00:18:36;;;;;;;;;;;;;;;12.82;81.72;101687.59;4987014;28;19918;-82
2022/09/18 00:21:04;;;;;;;;;;;;;;;12.81;81.63;101683.25;5000526;28;19958;-82
2022/09/18 00:23:29;;;;;;;;;;;;;;;12.80;81.59;101684.13;5000179;28;19917;-82
2022/09/18 00:25:55;;;;;;;;;;;;;;;12.82;81.69;101684.09;4989364;28;19918;-82
2022/09/18 00:28:20;;;;;;;;;;;;;;;12.83;81.63;101691.06;4984648;28;19929;-82
2022/09/18 00:30:46;;;;;;;;;;;;;;;12.84;81.55;101688.41;4993130;28;19922;-81
2022/09/18 00:33:12;;;;;;;;;;;;;;;12.83;81.89;101689.28;5016021;28;19921;-81
2022/09/18 00:35:40;;;;;;;;;;;;;;;12.83;81.74;101680.56;4978520;28;20094;-84
2022/09/18 00:38:05;;;;;;;;;;;;;;;12.83;81.71;101681.41;4979127;28;19941;-84
2022/09/18 00:40:31;;;;;;;;;;;;;;;12.84;81.92;101683.13;4969086;28;20268;-84
2022/09/18 00:42:57;;;;;;;;;;;;;;;12.84;81.80;101680.50;4979205;28;19937;-83
2022/09/18 00:45:22;;;;;;;;;;;;;;;12.84;81.96;101684.88;4979264;28;19922;-84
2022/09/18 00:47:49;;;;;;;;;;;;;;;12.84;81.82;101677.00;4961303;28;20185;-84
2022/09/18 00:50:24;;;;;;;;;;;;;;;12.83;81.60;101691.06;4979328;28;20163;-84
2022/09/18 00:52:56;;;;;;;;;;;;;;;12.77;81.46;101697.41;4980774;28;19958;-84
2022/09/18 00:55:23;;;;;;;;;;;;;;;12.76;81.59;101700.09;4988260;28;20214;-84
2022/09/18 00:57:50;;;;;;;;;;;;;;;12.70;81.44;101695.91;4984410;28;20205;-84
2022/09/18 01:00:15;;;;;;;;;;;;;;;12.68;81.62;101701.22;4992992;28;19984;-83
2022/09/18 01:05:06;;;;;;;;;;;;;;;12.68;81.80;101698.59;4967495;28;19910;-84
2022/09/18 01:08:10;;;;;;;;;;;;;;;12.70;81.38;101689.78;5002824;28;20224;-84
2022/09/18 01:10:47;;;;;;;;;;;;;;;12.71;81.41;101684.47;4975812;28;20236;-84
2022/09/18 01:13:25;;;;;;;;;;;;;;;12.74;81.63;101686.16;4963435;28;20205;-84
2022/09/18 01:15:56;;;;;;;;;;;;;;;12.74;81.52;101689.63;4966422;28;19922;-81
2022/09/18 01:18:40;;;;;;;;;;;;;;;12.73;81.73;101687.06;4992482;28;20155;-81
2022/09/18 01:21:12;;;;;;;;;;;;;;;12.75;81.26;101678.22;4989693;28;20223;-81
2022/09/18 01:23:55;;;;;;;;;;;;;;;12.75;81.49;101664.19;4985554;28;19944;-81
2022/09/18 01:26:39;;;;;;;;;;;;;;;12.74;81.57;101665.97;4983692;28;19913;-81
2022/09/18 01:29:09;;;;;;;;;;;;;;;12.74;81.59;101659.88;4985230;28;20020;-81
2022/09/18 01:31:46;;;;;;;;;;;;;;;12.73;81.62;101658.13;4993281;28;19980;-81
2022/09/18 01:34:16;;;;;;;;;;;;;;;12.74;81.68;101649.34;4998596;28;20080;-81
2022/09/18 01:36:44;;;;;;;;;;;;;;;12.75;81.60;101651.94;5000745;28;19932;-81
2022/09/18 01:39:16;;;;;;;;;;;;;;;12.75;81.69;101653.69;4997468;28;20028;-81
2022/09/18 01:41:49;;;;;;;;;;;;;;;12.76;81.66;101653.63;4985528;28;19917;-81
2022/09/18 01:44:17;;;;;;;;;;;;;;;12.77;81.91;101652.72;4984220;28;19912;-81
2022/09/18 01:46:44;;;;;;;;;;;;;;;12.78;81.74;101650.94;4999408;28;19906;-81
2022/09/18 01:49:14;;;;;;;;;;;;;;;12.78;82.12;101653.56;5000410;28;19918;-81
2022/09/18 01:51:46;;;;;;;;;;;;;;;12.77;82.06;101650.09;5000108;28;19928;-81
2022/09/18 01:54:17;;;;;;;;;;;;;;;12.78;81.87;101643.91;4985051;28;19909;-81
2022/09/18 01:56:45;;;;;;;;;;;;;;;12.78;81.69;101646.53;4994713;28;19916;-81
2022/09/18 01:59:13;;;;;;;;;;;;;;;12.78;81.88;101643.91;4987509;28;19918;-81
2022/09/18 02:01:40;;;;;;;;;;;;;;;12.77;81.77;101647.47;5000388;28;19956;-81
2022/09/18 02:04:15;;;;;;;;;;;;;;;12.77;81.50;101639.59;4986723;28;20082;-81
2022/09/18 02:06:46;;;;;;;;;;;;;;;12.77;81.96;101636.09;4996040;28;19953;-81
2022/09/18 02:09:12;;;;;;;;;;;;;;;12.73;81.58;101630.06;4986799;28;19918;-81
2022/09/18 02:11:41;;;;;;;;;;;;;;;12.73;81.25;101637.97;5012963;28;19921;-81
2022/09/18 02:14:10;;;;;;;;;;;;;;;12.73;81.27;101643.22;4986817;28;20259;-81
2022/09/18 02:16:39;;;;;;;;;;;;;;;12.73;81.06;101661.63;4979930;28;19922;-81
2022/09/18 02:19:08;;;;;;;;;;;;;;;12.67;80.91;101660.06;4990932;28;19913;-81
2022/09/18 02:21:35;;;;;;;;;;;;;;;12.67;81.12;101661.84;5006325;28;19932;-81
2022/09/18 02:24:03;;;;;;;;;;;;;;;12.68;81.18;101647.81;4995557;28;19917;-81
2022/09/18 02:26:29;;;;;;;;;;;;;;;12.68;81.19;101647.81;5000712;28;19918;-81
2022/09/18 02:28:55;;;;;;;;;;;;;;;12.69;81.37;101649.50;5003680;28;19924;-81
2022/09/18 02:31:20;;;;;;;;;;;;;;;12.72;81.78;101635.41;5003950;28;20099;-81
2022/09/18 02:33:46;;;;;;;;;;;;;;;12.71;81.81;101639.78;4998215;28;19945;-81
2022/09/18 02:36:30;;;;;;;;;;;;;;;12.73;81.63;101639.75;5002473;28;19960;-81
2022/09/18 02:39:04;;;;;;;;;;;;;;;12.73;81.56;101643.22;5019859;28;19913;-81
2022/09/18 02:41:48;;;;;;;;;;;;;;;12.73;81.78;101635.34;4985883;28;19946;-81
2022/09/18 02:44:32;;;;;;;;;;;;;;;12.74;81.75;101633.59;5000133;28;19967;-81
2022/09/18 02:47:12;;;;;;;;;;;;;;;12.74;81.84;101631.81;5019277;28;19984;-81
2022/09/18 02:49:43;;;;;;;;;;;;;;;12.76;81.99;101634.38;4996084;28;19906;-81
2022/09/18 02:52:20;;;;;;;;;;;;;;;12.77;82.01;101636.09;4979713;28;20001;-81
2022/09/18 02:54:48;;;;;;;;;;;;;;;12.73;81.94;101632.72;4981348;28;19924;-83
2022/09/18 02:57:24;;;;;;;;;;;;;;;12.73;82.10;101622.19;4977011;28;20154;-83
2022/09/18 02:59:52;;;;;;;;;;;;;;;12.72;81.85;101628.38;5001595;28;19920;-83
2022/09/18 03:02:18;;;;;;;;;;;;;;;12.71;81.98;101626.66;5017993;28;19914;-83
2022/09/18 03:04:44;;;;;;;;;;;;;;;12.70;81.74;101624.06;5019173;28;19936;-83
2022/09/18 03:07:13;;;;;;;;;;;;;;;12.66;81.11;101626.84;5017825;28;20083;-83
2022/09/18 03:09:38;;;;;;;;;;;;;;;12.67;81.14;101628.53;5018199;28;19924;-83
2022/09/18 03:12:04;;;;;;;;;;;;;;;12.65;80.80;101633.00;5019882;28;19905;-83
2022/09/18 03:14:29;;;;;;;;;;;;;;;12.66;80.76;101618.06;4996446;28;19980;-83
2022/09/18 03:16:54;;;;;;;;;;;;;;;12.66;80.69;101607.56;4968709;28;19932;-83
2022/09/18 03:19:19;;;;;;;;;;;;;;;12.67;80.54;101612.78;4983705;28;19936;-83
2022/09/18 03:21:45;;;;;;;;;;;;;;;12.66;80.69;101612.81;5011212;28;19929;-83
2022/09/18 03:24:10;;;;;;;;;;;;;;;12.65;80.58;101617.22;5000988;28;19913;-83
2022/09/18 03:26:36;;;;;;;;;;;;;;;12.64;81.04;101615.53;5015649;28;19956;-83
2022/09/18 03:29:05;;;;;;;;;;;;;;;12.64;80.99;101614.66;4986119;28;20093;-83
2022/09/18 03:31:30;;;;;;;;;;;;;;;12.63;80.90;101613.81;5019137;28;19905;-83
2022/09/18 03:33:56;;;;;;;;;;;;;;;12.63;80.99;101605.91;4985232;28;20095;-83
2022/09/18 03:36:21;;;;;;;;;;;;;;;12.65;80.85;101616.38;5007469;28;19922;-83
2022/09/18 03:38:46;;;;;;;;;;;;;;;12.65;80.78;101611.13;5002263;28;19980;-83
2022/09/18 03:41:12;;;;;;;;;;;;;;;12.66;81.36;101624.22;4986645;28;20198;-83
2022/09/18 03:43:37;;;;;;;;;;;;;;;12.63;80.98;101619.06;5002055;28;19921;-83
2022/09/18 03:46:02;;;;;;;;;;;;;;;12.63;80.87;101615.59;5000396;28;19913;-83
2022/09/18 03:48:28;;;;;;;;;;;;;;;12.63;81.03;101605.91;5004190;28;19937;-83
2022/09/18 03:50:53;;;;;;;;;;;;;;;12.62;80.35;101598.09;5006578;28;19914;-83
2022/09/18 03:53:18;;;;;;;;;;;;;;;12.62;80.76;101596.31;4983192;28;20288;-83
2022/09/18 03:55:45;;;;;;;;;;;;;;;12.61;80.74;101605.13;4995974;28;19917;-83
2022/09/18 03:58:11;;;;;;;;;;;;;;;12.62;80.68;101616.47;5018523;28;19924;-83
2022/09/18 04:00:36;;;;;;;;;;;;;;;12.63;80.82;101618.22;4992129;28;20439;-83
2022/09/18 04:03:01;;;;;;;;;;;;;;;12.63;81.15;101618.22;5014657;28;19985;-83
2022/09/18 04:05:26;;;;;;;;;;;;;;;12.64;81.30;101607.66;4991855;28;19985;-83
2022/09/18 04:07:52;;;;;;;;;;;;;;;12.65;81.16;101613.75;5010866;28;19922;-83
2022/09/18 04:10:21;;;;;;;;;;;;;;;12.66;81.51;101625.97;5013988;28;19941;-83
2022/09/18 04:12:46;;;;;;;;;;;;;;;12.66;81.80;101624.22;5015908;28;19920;-83
2022/09/18 04:15:13;;;;;;;;;;;;;;;12.66;82.05;101613.69;5006414;28;19987;-83
2022/09/18 04:17:38;;;;;;;;;;;;;;;12.66;82.14;101632.09;5001777;28;19955;-83
2022/09/18 04:20:04;;;;;;;;;;;;;;;12.66;81.96;101624.22;4987372;28;19913;-83
2022/09/18 04:22:29;;;;;;;;;;;;;;;12.66;81.80;101626.84;5018983;28;19921;-83
2022/09/18 04:24:54;;;;;;;;;;;;;;;12.66;82.07;101613.69;5016492;28;19910;-83
2022/09/18 04:27:20;;;;;;;;;;;;;;;12.65;82.12;101616.38;5001947;28;19964;-83
2022/09/18 04:29:45;;;;;;;;;;;;;;;12.65;82.16;101614.59;5009291;28;20205;-83
2022/09/18 04:32:12;;;;;;;;;;;;;;;12.67;82.17;101609.28;5003396;28;20125;-83
2022/09/18 04:34:37;;;;;;;;;;;;;;;12.67;81.83;101619.81;5019481;28;19945;-83
2022/09/18 04:37:03;;;;;;;;;;;;;;;12.68;82.13;101606.63;4986803;28;19943;-83
2022/09/18 04:39:28;;;;;;;;;;;;;;;12.69;82.15;101602.22;5020093;28;19918;-83
2022/09/18 04:41:54;;;;;;;;;;;;;;;12.70;82.13;101611.81;5001994;28;19921;-83
2022/09/18 04:44:19;;;;;;;;;;;;;;;12.69;81.84;101610.09;5011569;28;19980;-83
2022/09/18 04:46:45;;;;;;;;;;;;;;;12.68;81.84;101616.28;4997885;28;20090;-83
2022/09/18 04:49:10;;;;;;;;;;;;;;;12.66;81.45;101621.59;5002394;28;19918;-83
2022/09/18 04:51:35;;;;;;;;;;;;;;;12.66;81.46;101624.22;5016871;28;19951;-83
2022/09/18 04:54:01;;;;;;;;;;;;;;;12.65;81.64;101609.34;4985297;28;19917;-83
2022/09/18 04:56:26;;;;;;;;;;;;;;;12.64;81.28;101606.78;5001101;28;19917;-83
2022/09/18 04:58:51;;;;;;;;;;;;;;;12.64;81.67;101605.03;5009967;28;20108;-83
2022/09/18 05:01:18;;;;;;;;;;;;;;;12.64;81.58;101591.00;5002549;28;19913;-83
2022/09/18 05:03:43;;;;;;;;;;;;;;;12.65;81.61;101590.94;5001320;28;19910;-83
2022/09/18 05:06:09;;;;;;;;;;;;;;;12.66;82.04;101591.81;4992206;28;20165;-83
2022/09/18 05:08:34;;;;;;;;;;;;;;;12.65;82.04;101585.69;5019926;28;19913;-83
2022/09/18 05:11:00;;;;;;;;;;;;;;;12.67;82.12;101585.66;4996325;28;19932;-83
2022/09/18 05:13:25;;;;;;;;;;;;;;;12.68;82.35;101584.75;4983196;28;20204;-83
2022/09/18 05:15:55;;;;;;;;;;;;;;;12.68;82.38;101593.47;5003624;28;19952;-83
2022/09/18 05:18:20;;;;;;;;;;;;;;;12.67;82.35;101589.13;4971927;28;19950;-83
2022/09/18 05:20:45;;;;;;;;;;;;;;;12.66;82.22;101583.91;4998657;28;19932;-83
2022/09/18 05:23:11;;;;;;;;;;;;;;;12.65;81.83;101585.69;5001726;28;19914;-83
2022/09/18 05:25:36;;;;;;;;;;;;;;;12.64;81.92;101589.25;5015131;28;20225;-83
2022/09/18 05:28:02;;;;;;;;;;;;;;;12.64;81.91;101591.88;5019967;28;19976;-83
2022/09/18 05:30:27;;;;;;;;;;;;;;;12.64;82.13;101589.25;5011409;28;20092;-83
2022/09/18 05:32:56;;;;;;;;;;;;;;;12.64;82.01;101589.25;4997817;28;19914;-83
2022/09/18 05:35:22;;;;;;;;;;;;;;;12.62;81.91;101593.69;4984289;28;19928;-83
2022/09/18 05:37:51;;;;;;;;;;;;;;;12.60;82.38;101592.88;4995652;28;19921;-83
2022/09/18 05:40:17;;;;;;;;;;;;;;;12.58;81.79;101588.63;5011372;28;19964;-83
2022/09/18 05:42:46;;;;;;;;;;;;;;;12.57;82.24;101590.41;4979865;28;20110;-83
2022/09/18 05:45:12;;;;;;;;;;;;;;;12.59;82.08;101588.56;4979681;28;19918;-83
2022/09/18 05:47:38;;;;;;;;;;;;;;;12.58;82.26;101581.59;5011133;28;20197;-83
2022/09/18 05:50:03;;;;;;;;;;;;;;;12.58;81.94;101578.09;5013436;28;19924;-83
2022/09/18 05:52:29;;;;;;;;;;;;;;;12.57;82.41;101581.63;4998155;28;19937;-84
2022/09/18 05:54:54;;;;;;;;;;;;;;;12.58;82.03;101575.47;4997659;28;19925;-84
2022/09/18 05:57:19;;;;;;;;;;;;;;;12.58;82.29;101565.81;5008881;28;19933;-84
2022/09/18 05:59:44;;;;;;;;;;;;;;;12.59;82.27;101570.16;5017572;28;20016;-83
2022/09/18 06:02:10;;;;;;;;;;;;;;;12.59;82.64;101559.66;5008629;28;19920;-84
2022/09/18 06:04:35;;;;;;;;;;;;;;;12.60;82.75;101561.34;4999514;28;20154;-83
2022/09/18 06:07:00;;;;;;;;;;;;;;;12.61;82.68;101559.59;4996010;28;19913;-83
2022/09/18 06:09:26;;;;;;;;;;;;;;;12.61;82.69;101559.59;5020550;28;19928;-83
2022/09/18 06:11:52;;;;;;;;;;;;;;;12.62;82.51;101561.31;4989797;28;19969;-84
2022/09/18 06:14:17;;;;;;;;;;;;;;;12.63;82.72;101569.13;4990697;28;19916;-83
2022/09/18 06:16:42;;;;;;;;;;;;;;;12.65;83.19;101574.34;5028072;28;19921;-83
2022/09/18 06:19:08;;;;;;;;;;;;;;;12.67;83.05;101583.88;4998103;28;19935;-84
2022/09/18 06:21:33;;;;;;;;;;;;;;;12.70;83.37;101584.66;5016037;28;19925;-83
2022/09/18 06:23:58;;;;;;;;;;;;;;;12.70;83.97;101577.66;5014602;28;19909;-83
2022/09/18 06:26:24;;;;;;;;;;;;;;;12.72;84.10;101581.06;5009528;28;19910;-83
2022/09/18 06:28:50;;;;;;;;;;;;;;;12.73;84.19;101577.50;5028718;28;19905;-83
2022/09/18 06:31:16;;;;;;;;;;;;;;;12.74;84.58;101573.13;5013789;28;19917;-83
2022/09/18 06:33:41;;;;;;;;;;;;;;;12.74;84.71;101568.72;5007967;28;19984;-83
2022/09/18 06:36:09;;;;;;;;;;;;;;;12.74;84.57;101568.72;4996078;28;19910;-83
2022/09/18 06:38:34;;;;;;;;;;;;;;;12.76;84.48;101563.41;5011596;28;20229;-83
2022/09/18 06:41:00;;;;;;;;;;;;;;;12.75;84.23;101565.19;5014990;28;19981;-83
2022/09/18 06:43:25;;;;;;;;;;;;;;;12.75;84.16;101565.19;4991605;28;19944;-84
2022/09/18 06:45:52;;;;;;;;;;;;;;;12.76;83.68;101560.78;5009757;28;19949;-83
2022/09/18 06:48:17;;;;;;;;;;;;;;;12.73;83.38;101556.50;5022953;28;19989;-83
2022/09/18 06:50:42;;;;;;;;;;;;;;;12.75;83.48;101565.19;4992546;28;19906;-83
2022/09/18 06:53:07;;;;;;;;;;;;;;;12.75;83.51;101567.81;5000125;28;19949;-84
2022/09/18 06:55:33;;;;;;;;;;;;;;;12.76;83.35;101571.31;4989037;28;19921;-83
2022/09/18 06:57:58;;;;;;;;;;;;;;;12.76;83.32;101581.81;4962050;28;19941;-84
2022/09/18 07:00:24;;;;;;;;;;;;;;;12.71;83.64;101578.50;4997176;28;20133;-83
2022/09/18 07:03:00;;;;;;;;;;;;;;;12.73;83.79;101585.41;5002753;28;19909;-83
2022/09/18 07:05:26;;;;;;;;;;;;;;;12.74;84.00;101579.25;5000715;28;19952;-83
2022/09/18 07:07:52;;;;;;;;;;;;;;;12.76;84.19;101585.28;5013962;28;19980;-83
2022/09/18 07:10:17;;;;;;;;;;;;;;;12.78;84.10;101588.72;4980830;28;20199;-83
2022/09/18 07:12:47;;;;;;;;;;;;;;;12.79;84.32;101585.19;4982472;28;20198;-83
2022/09/18 07:15:12;;;;;;;;;;;;;;;12.80;84.46;101571.09;4988713;28;19922;-83
2022/09/18 07:17:37;;;;;;;;;;;;;;;12.82;84.37;101578.94;5011183;28;20224;-83
2022/09/18 07:20:03;;;;;;;;;;;;;;;12.84;84.83;101577.09;4969854;28;20001;-83
2022/09/18 07:22:28;;;;;;;;;;;;;;;12.85;84.93;101579.69;4980331;28;19921;-83
2022/09/18 07:24:53;;;;;;;;;;;;;;;12.86;85.00;101568.28;4991318;28;20278;-83
2022/09/18 07:27:19;;;;;;;;;;;;;;;12.86;84.89;101573.53;5000747;28;19918;-83
2022/09/18 07:29:44;;;;;;;;;;;;;;;12.86;85.34;101578.78;4982370;28;19910;-84
2022/09/18 07:32:09;;;;;;;;;;;;;;;12.85;84.91;101574.44;5003089;28;20217;-83
2022/09/18 07:34:34;;;;;;;;;;;;;;;12.84;85.02;101591.13;4980496;28;19920;-83
2022/09/18 07:37:00;;;;;;;;;;;;;;;12.85;85.05;101587.56;4998254;28;19926;-83
2022/09/18 07:39:25;;;;;;;;;;;;;;;12.84;84.97;101583.25;5003516;28;19975;-85
2022/09/18 07:41:50;;;;;;;;;;;;;;;12.82;84.79;101586.81;4993693;28;19917;-84
2022/09/18 07:44:16;;;;;;;;;;;;;;;12.82;84.37;101592.09;4988317;28;19914;-85
2022/09/18 07:46:41;;;;;;;;;;;;;;;12.73;84.87;101590.66;4995106;28;19964;-84
2022/09/18 07:49:06;;;;;;;;;;;;;;;12.72;85.06;101582.84;4994197;28;19925;-84
2022/09/18 07:51:32;;;;;;;;;;;;;;;12.73;84.57;101571.41;4993439;28;19926;-84
2022/09/18 07:53:57;;;;;;;;;;;;;;;12.73;84.44;101569.63;4988303;28;19932;-84
2022/09/18 07:56:22;;;;;;;;;;;;;;;12.74;84.53;101558.22;5002002;28;19956;-84
2022/09/18 07:58:48;;;;;;;;;;;;;;;12.75;84.30;101557.31;4963089;28;19918;-84
2022/09/18 08:01:13;;;;;;;;;;;;;;;12.76;84.36;101561.63;5001498;28;19922;-84
2022/09/18 08:03:38;;;;;;;;;;;;;;;12.78;84.02;101590.50;4996270;28;20200;-84
2022/09/18 08:06:05;;;;;;;;;;;;;;;12.78;84.45;101599.22;4996880;28;19922;-84
2022/09/18 08:08:33;;;;;;;;;;;;;;;12.74;84.77;101600.28;4990555;28;19925;-84
2022/09/18 08:10:58;;;;;;;;;;;;;;;12.69;85.34;101591.69;5000665;28;20240;-84
2022/09/18 08:13:23;;;;;;;;;;;;;;;12.70;85.23;101588.16;4975657;28;19989;-85
2022/09/18 08:15:48;;;;;;;;;;;;;;;12.70;84.79;101582.91;4985097;28;20012;-84
2022/09/18 08:18:14;;;;;;;;;;;;;;;12.72;84.90;101581.06;4993634;28;19926;-85
2022/09/18 08:20:40;;;;;;;;;;;;;;;12.72;84.90;101586.34;4973495;28;19924;-84
2022/09/18 08:23:07;;;;;;;;;;;;;;;12.75;84.84;101583.59;4988081;28;19962;-84
2022/09/18 08:25:33;;;;;;;;;;;;;;;12.76;84.79;101587.06;5003470;28;20052;-84
2022/09/18 08:27:59;;;;;;;;;;;;;;;12.77;84.81;101586.13;4982549;28;19933;-84
2022/09/18 08:30:24;;;;;;;;;;;;;;;12.78;84.66;101579.97;4998708;28;20195;-84
2022/09/18 08:32:49;;;;;;;;;;;;;;;12.80;84.29;101586.03;4970900;28;19994;-85
2022/09/18 08:35:14;;;;;;;;;;;;;;;12.79;84.82;101587.81;5001442;28;19922;-84
2022/09/18 08:37:45;;;;;;;;;;;;;;;12.81;84.76;101585.13;4985929;28;19918;-83
2022/09/18 08:40:12;;;;;;;;;;;;;;;12.82;84.91;101586.81;5004092;28;20231;-83
2022/09/18 08:42:37;;;;;;;;;;;;;;;12.80;85.35;101586.88;4996616;28;19964;-83
2022/09/18 08:45:15;;;;;;;;;;;;;;;12.84;85.08;101588.50;4995271;28;19917;-83
2022/09/18 08:47:46;;;;;;;;;;;;;;;12.85;84.91;101581.47;5010455;28;20101;-82
2022/09/18 08:50:17;;;;;;;;;;;;;;;12.85;84.68;101579.69;4997512;28;19917;-83
2022/09/18 08:52:45;;;;;;;;;;;;;;;12.87;84.65;101580.47;5010966;28;19917;-83
2022/09/18 08:55:11;;;;;;;;;;;;;;;12.89;84.75;101582.19;5003013;28;19921;-83
2022/09/18 08:57:40;;;;;;;;;;;;;;;12.90;84.70;101579.53;4985602;28;19976;-83
2022/09/18 09:00:10;;;;;;;;;;;;;;;12.92;84.75;101579.47;4965592;28;19906;-83
2022/09/18 09:02:36;;;;;;;;;;;;;;;12.92;84.34;101561.91;5007456;28;19980;-83
2022/09/18 09:05:05;;;;;;;;;;;;;;;12.94;84.54;101569.75;4981397;28;19906;-83
2022/09/18 09:07:42;;;;;;;;;;;;;;;12.93;84.51;101565.38;5004293;28;20205;-83
2022/09/18 09:10:07;;;;;;;;;;;;;;;12.94;84.26;101564.50;5000145;28;20137;-83
2022/09/18 09:12:43;;;;;;;;;;;;;;;12.95;84.22;101564.44;5006027;28;19922;-83
2022/09/18 09:15:27;;;;;;;;;;;;;;;12.96;84.12;101566.13;5006914;28;19948;-83
2022/09/18 09:18:04;;;;;;;;;;;;;;;12.96;84.00;101552.97;4992889;28;19914;-83
2022/09/18 09:20:36;;;;;;;;;;;;;;;12.97;83.20;101548.56;4996919;28;19914;-83
2022/09/18 09:23:10;;;;;;;;;;;;;;;12.99;83.56;101557.28;4989449;28;19916;-84
2022/09/18 09:25:39;;;;;;;;;;;;;;;12.99;83.47;101552.88;4996157;28;19925;-84
2022/09/18 09:28:15;;;;;;;;;;;;;;;13.00;83.52;101556.34;4984803;28;19928;-83
2022/09/18 09:30:43;;;;;;;;;;;;;;;13.02;83.53;101554.50;5003468;28;19990;-83
2022/09/18 09:33:26;;;;;;;;;;;;;;;13.02;83.44;101563.28;4974858;28;19973;-83
2022/09/18 09:36:00;;;;;;;;;;;;;;;13.03;83.96;101566.75;4997462;28;19909;-85
2022/09/18 09:38:41;;;;;;;;;;;;;;;13.02;83.84;101583.44;4998461;28;19976;-83
2022/09/18 09:41:21;;;;;;;;;;;;;;;13.03;83.60;101590.41;5004089;28;19920;-83
2022/09/18 09:44:10;;;;;;;;;;;;;;;13.03;83.02;101579.91;4998331;28;19910;-83
2022/09/18 09:46:42;;;;;;;;;;;;;;;13.00;82.57;101586.13;4999039;28;19916;-83
2022/09/18 09:49:12;;;;;;;;;;;;;;;13.00;82.90;101582.63;4992363;28;19909;-83
2022/09/18 09:51:45;;;;;;;;;;;;;;;13.02;82.98;101594.81;4994939;28;19916;-85
2022/09/18 09:54:11;;;;;;;;;;;;;;;13.01;82.91;101594.88;4985348;28;19965;-85
2022/09/18 09:56:41;;;;;;;;;;;;;;;13.00;83.09;101596.63;4988130;28;19941;-85
2022/09/18 09:59:06;;;;;;;;;;;;;;;13.00;83.39;101585.28;4967452;28;19985;-84
2022/09/18 10:01:41;;;;;;;;;;;;;;;12.96;83.42;101581.06;5010097;28;19910;-84
2022/09/18 10:04:18;;;;;;;;;;;;;;;12.96;83.68;101583.69;4999498;28;20146;-83
2022/09/18 10:06:49;;;;;;;;;;;;;;;12.96;83.89;101571.38;4986102;28;19918;-83
2022/09/18 10:09:19;;;;;;;;;;;;;;;12.98;83.83;101569.53;5013928;28;19941;-83
2022/09/18 10:11:50;;;;;;;;;;;;;;;12.99;83.58;101571.28;4990224;28;19941;-83
2022/09/18 10:14:22;;;;;;;;;;;;;;;12.99;84.13;101573.06;4990632;28;19942;-82
2022/09/18 10:16:50;;;;;;;;;;;;;;;12.99;84.18;101570.44;4995541;28;19910;-83
2022/09/18 10:19:20;;;;;;;;;;;;;;;13.00;84.03;101572.97;4994131;28;19922;-83
2022/09/18 10:21:46;;;;;;;;;;;;;;;13.02;83.97;101571.16;4997323;28;19918;-83
2022/09/18 10:24:11;;;;;;;;;;;;;;;13.03;84.49;101564.97;4999508;28;19910;-83
2022/09/18 10:26:40;;;;;;;;;;;;;;;13.05;84.10;101578.06;4997545;28;19917;-83
2022/09/18 10:29:05;;;;;;;;;;;;;;;13.06;84.32;101571.88;4993117;28;19925;-84
2022/09/18 10:31:47;;;;;;;;;;;;;;;13.09;84.11;101568.28;4974010;28;19925;-84
2022/09/18 10:34:30;;;;;;;;;;;;;;;13.10;83.99;101567.34;4994657;28;19952;-83
2022/09/18 10:36:56;;;;;;;;;;;;;;;13.11;83.58;101575.19;4998203;28;20224;-84
2022/09/18 10:39:28;;;;;;;;;;;;;;;13.12;83.64;101568.16;5002608;28;19921;-83
2022/09/18 10:42:01;;;;;;;;;;;;;;;13.12;83.77;101576.91;4994706;28;20121;-83
2022/09/18 10:44:31;;;;;;;;;;;;;;;13.13;84.29;101577.75;4994758;28;19918;-83
2022/09/18 10:47:02;;;;;;;;;;;;;;;13.13;84.55;101591.75;5013749;28;19910;-83
2022/09/18 10:49:30;;;;;;;;;;;;;;;13.14;84.59;101590.84;4984094;28;20201;-84
2022/09/18 10:52:13;;;;;;;;;;;;;;;13.14;84.78;101582.94;4981589;28;19910;-83
2022/09/18 10:54:38;;;;;;;;;;;;;;;13.15;84.82;101592.56;4987783;28;20159;-83
2022/09/18 10:57:24;;;;;;;;;;;;;;;13.16;85.01;101609.19;4984737;28;19928;-83
2022/09/18 10:59:49;;;;;;;;;;;;;;;13.16;84.91;101599.53;4986446;28;20345;-83
2022/09/18 11:02:17;;;;;;;;;;;;;;;13.18;84.86;101612.63;4997099;28;20140;-83
2022/09/18 11:04:46;;;;;;;;;;;;;;;13.18;84.45;101591.59;4994660;28;19910;-83
2022/09/18 11:07:12;;;;;;;;;;;;;;;13.19;84.43;101588.06;4993706;28;20820;-83
2022/09/18 11:09:38;;;;;;;;;;;;;;;13.20;84.28;101590.59;4980190;28;19952;-83
2022/09/18 11:12:04;;;;;;;;;;;;;;;13.20;84.62;101603.75;4994360;28;19918;-83
2022/09/18 11:14:37;;;;;;;;;;;;;;;13.19;84.53;101615.19;5009009;28;19929;-83
2022/09/18 11:17:02;;;;;;;;;;;;;;;13.20;84.38;101601.13;4992275;28;19965;-84
2022/09/18 11:19:30;;;;;;;;;;;;;;;13.20;84.27;101603.75;4996534;28;19926;-84
2022/09/18 11:21:58;;;;;;;;;;;;;;;13.21;84.42;101607.25;5005831;28;19939;-84
2022/09/18 11:24:30;;;;;;;;;;;;;;;13.20;84.45;101602.91;4988664;28;19925;-85
2022/09/18 11:26:56;;;;;;;;;;;;;;;13.20;84.38;101603.75;5003476;28;19940;-84
2022/09/18 11:29:38;;;;;;;;;;;;;;;13.20;84.11;101608.16;4998145;28;20104;-85
2022/09/18 11:32:18;;;;;;;;;;;;;;;13.22;84.00;101612.47;4992100;28;19917;-85
2022/09/18 11:34:53;;;;;;;;;;;;;;;13.21;83.76;101605.47;5002503;28;19950;-85
2022/09/18 11:37:57;;;;;;;;;;;;;;;13.21;84.07;101605.47;5006524;28;20120;-84
2022/09/18 11:40:41;;;;;;;;;;;;;;;13.22;83.77;101601.06;4934031;29;19918;-84
2022/09/18 11:43:14;;;;;;;;;;;;;;;13.22;83.97;101591.41;4929584;29;19986;-85
2022/09/18 11:45:44;;;;;;;;;;;;;;;13.24;83.67;101593.97;4955032;28;19918;-84
2022/09/18 11:48:18;;;;;;;;;;;;;;;13.24;83.76;101597.47;5002793;28;19925;-84
2022/09/18 11:50:44;;;;;;;;;;;;;;;13.25;83.75;101596.53;4990445;28;20085;-84
2022/09/18 11:53:15;;;;;;;;;;;;;;;13.24;83.80;101589.56;4998081;28;20199;-84
2022/09/18 11:55:43;;;;;;;;;;;;;;;13.25;83.93;101591.28;4998352;28;19988;-84
2022/09/18 11:58:15;;;;;;;;;;;;;;;13.25;83.82;101585.16;4994671;28;20233;-84
2022/09/18 12:00:49;;;;;;;;;;;;;;;13.25;84.03;101586.00;5002735;28;19918;-84
2022/09/18 12:03:23;;;;;;;;;;;;;;;13.27;83.92;101578.06;4987518;28;20212;-84
2022/09/18 12:05:54;;;;;;;;;;;;;;;13.28;84.27;101573.66;5004274;28;19925;-84
2022/09/18 12:08:35;;;;;;;;;;;;;;;13.29;84.49;101578.00;4984851;28;19926;-84
2022/09/18 12:11:10;;;;;;;;;;;;;;;13.30;84.35;101577.94;4992065;28;19953;-84
2022/09/18 12:13:45;;;;;;;;;;;;;;;13.30;84.51;101575.31;4993816;28;19917;-84
2022/09/18 12:16:20;;;;;;;;;;;;;;;13.31;84.43;101577.03;4992816;28;19944;-84
2022/09/18 12:18:48;;;;;;;;;;;;;;;13.32;84.21;101580.56;4993871;28;19933;-84
2022/09/18 12:21:16;;;;;;;;;;;;;;;13.32;84.30;101570.88;4999347;28;20187;-84
2022/09/18 12:23:41;;;;;;;;;;;;;;;13.33;84.05;101574.34;4985625;28;20019;-85
2022/09/18 12:26:12;;;;;;;;;;;;;;;13.34;84.38;101561.16;5014245;28;19917;-83
2022/09/18 12:29:13;;;;;;;;;;;;;;;13.37;84.46;101571.56;5006736;28;20107;-85
2022/09/18 12:31:54;;;;;;;;;;;;;;;13.38;84.51;101564.50;4977611;28;19918;-83
2022/09/18 12:34:22;;;;;;;;;;;;;;;13.37;84.69;101563.66;4978992;28;20303;-84
2022/09/18 12:36:50;;;;;;;;;;;;;;;13.37;84.43;101558.41;4998413;28;20090;-83
2022/09/18 12:39:15;;;;;;;;;;;;;;;13.38;84.54;101559.25;4992679;28;20156;-85
2022/09/18 12:42:08;;;;;;;;;;;;;;;13.36;84.72;101548.78;5011699;28;20193;-84
2022/09/18 12:44:42;;;;;;;;;;;;;;;13.38;84.71;101559.25;4993453;28;19985;-85
2022/09/18 12:47:07;;;;;;;;;;;;;;;13.38;84.57;101562.72;4981337;28;19922;-84